This is the latest recevied weather packets stored in our database for station/object OE5RBO. If no packets are shown the sender has not sent any weather packets the latest 1 day(s).
| Time | Temp. | Humidity | Pressure | Rain* | Wind** | Luminosity | Snow |
|---|---|---|---|---|---|---|---|
| 1777985327 | 25° C | 41% | 1004.8 hPa | 0 mm | 2.24 m/s, 215° | - | - |
| 1777984726 | 25° C | 40% | 1004.9 hPa | 0 mm | 2.24 m/s, 160° | - | - |
| 1777984126 | 25.56° C | 41% | 1005.2 hPa | 0 mm | 1.79 m/s, 225° | - | - |
| 1777983526 | 25.56° C | 40% | 1005.4 hPa | 0 mm | 1.34 m/s, 288° | - | - |
| 1777982925 | 25.56° C | 40% | 1005.5 hPa | 0 mm | 1.34 m/s, 212° | - | - |
| 1777982325 | 25° C | 40% | 1005.6 hPa | 0 mm | 1.34 m/s, 219° | - | - |
| 1777981724 | 25.56° C | 41% | 1005.9 hPa | 0 mm | 0.89 m/s, 252° | - | - |
| 1777981124 | 26.67° C | 41% | 1006 hPa | 0 mm | 0.45 m/s, 215° | - | - |
| 1777980524 | 25.56° C | 43% | 1006.1 hPa | 0 mm | 0.89 m/s, 288° | - | - |
| 1777979923 | 25° C | 46% | 1006.2 hPa | 0 mm | 0.89 m/s, 343° | - | - |
| 1777979323 | 24.44° C | 46% | 1006.3 hPa | 0 mm | 0.89 m/s, 330° | - | - |
| 1777978959 | 25.56° C | 40% | 1006.4 hPa | 0 mm | 0.89 m/s, 221° | - | - |
| 1777978723 | 25.56° C | 40% | 1006.4 hPa | 0 mm | 0.89 m/s, 221° | - | - |
| 1777978171 | 26.67° C | 35% | 1006.6 hPa | 0 mm | 0.45 m/s, 252° | - | - |
| 1777977522 | 26.11° C | 40% | 1006.7 hPa | 0 mm | 1.79 m/s, 288° | - | - |
| 1777976922 | 26.67° C | 42% | 1006.9 hPa | 0 mm | 0 m/s | - | - |
| 1777975721 | 23.33° C | 48% | 1007.3 hPa | 0 mm | 0.89 m/s, 218° | - | - |
| 1777975120 | 23.33° C | 49% | 1007.2 hPa | 0 mm | 0.89 m/s, 246° | - | - |
| 1777974520 | 23.89° C | 48% | 1007.3 hPa | 0 mm | 0.89 m/s, 215° | - | - |
| 1777973319 | 24.44° C | 48% | 1007.5 hPa | 0 mm | 0.89 m/s, 270° | - | - |
| 1777972119 | 23.89° C | 50% | 1007.6 hPa | 0 mm | 0.45 m/s, 343° | - | - |
| 1777971518 | 23.89° C | 53% | 1007.7 hPa | 0 mm | 0 m/s | - | - |
| 1777970918 | 23.33° C | 52% | 1007.7 hPa | 0 mm | 1.34 m/s, 203° | - | - |
| 1777970318 | 24.44° C | 53% | 1007.7 hPa | 0 mm | 0.89 m/s, 24° | - | - |
| 1777969717 | 23.89° C | 56% | 1007.8 hPa | 0 mm | 0.89 m/s, 350° | - | - |
* Rain since midnight (hover to see other rain measurements)
** Current wind speed in m/s (hover to see current wind gust speed)